createdAt,value
2022-08-04T00:02:19.321Z,17.50
2022-08-04T00:05:05.985Z,24.50
2022-08-04T00:07:43.883Z,21.10
2022-08-04T00:10:16.269Z,16.23
2022-08-04T00:12:48.847Z,25.03
2022-08-04T00:15:17.166Z,32.83
2022-08-04T00:17:58.104Z,23.80
2022-08-04T00:20:29.187Z,24.27
2022-08-04T00:22:57.170Z,23.50
2022-08-04T00:25:24.931Z,19.53
2022-08-04T00:27:51.687Z,19.27
2022-08-04T00:30:18.252Z,12.73
2022-08-04T00:32:45.409Z,22.30
2022-08-04T00:35:15.667Z,22.23
2022-08-04T00:37:45.333Z,17.70
2022-08-04T00:40:49.450Z,25.20
2022-08-04T00:43:28.293Z,21.37
2022-08-04T00:46:22.221Z,25.23
2022-08-04T00:49:13.879Z,26.57
2022-08-04T00:51:40.379Z,21.97
2022-08-04T00:54:07.349Z,14.77
2022-08-04T00:57:00.019Z,29.53
2022-08-04T01:00:09.827Z,16.80
2022-08-04T01:02:52.493Z,16.43
2022-08-04T01:05:38.051Z,15.70
2022-08-04T01:08:41.761Z,19.30
2022-08-04T01:11:24.310Z,20.57
2022-08-04T01:14:20.269Z,17.10
2022-08-04T01:16:57.891Z,18.10
2022-08-04T01:19:45.548Z,12.73
2022-08-04T01:23:03.683Z,12.47
2022-08-04T01:26:01.197Z,9.50
2022-08-04T01:28:43.530Z,14.60
2022-08-04T01:31:30.986Z,19.83
2022-08-04T01:34:04.812Z,15.97
2022-08-04T01:36:38.063Z,16.80
2022-08-04T01:39:24.781Z,18.33
2022-08-04T01:41:58.227Z,11.33
2022-08-04T01:44:28.590Z,21.13
2022-08-04T01:46:55.291Z,12.73
2022-08-04T01:49:25.263Z,13.57
2022-08-04T01:51:53.002Z,14.57
2022-08-04T01:54:19.923Z,14.30
2022-08-04T01:56:50.873Z,18.87
2022-08-04T01:59:21.494Z,15.00
2022-08-04T02:01:48.574Z,13.03
2022-08-04T02:04:18.384Z,18.67
2022-08-04T02:06:59.658Z,10.43
2022-08-04T02:09:56.380Z,16.03
2022-08-04T02:13:05.193Z,14.70
2022-08-04T02:16:06.695Z,18.73
2022-08-04T02:18:57.652Z,12.40
2022-08-04T02:21:26.850Z,26.37
2022-08-04T02:24:15.068Z,15.13
2022-08-04T02:26:46.413Z,13.60
2022-08-04T02:29:40.846Z,16.90
2022-08-04T02:32:15.684Z,13.33
2022-08-04T02:35:06.459Z,11.30
2022-08-04T02:37:33.841Z,19.50
2022-08-04T02:40:03.730Z,12.00
2022-08-04T02:42:31.793Z,12.20
2022-08-04T02:45:00.946Z,14.57
2022-08-04T02:48:29.227Z,21.53
2022-08-04T02:50:28.791Z,12.53
2022-08-04T02:53:00.335Z,12.77
2022-08-04T02:55:28.961Z,18.67
2022-08-04T02:57:58.037Z,24.37
2022-08-04T03:00:25.667Z,12.50
2022-08-04T03:03:27.107Z,16.33
2022-08-04T03:06:25.466Z,16.33
2022-08-04T03:09:07.150Z,11.90
2022-08-04T03:12:03.198Z,22.33
2022-08-04T03:14:58.423Z,25.40
2022-08-04T03:17:33.787Z,13.80
2022-08-04T03:20:34.270Z,19.50
2022-08-04T03:23:29.366Z,14.53
2022-08-04T03:26:33.070Z,18.10
2022-08-04T03:29:38.435Z,24.90
2022-08-04T03:32:27.242Z,14.00
2022-08-04T03:35:08.418Z,17.90
2022-08-04T03:37:57.297Z,14.77
2022-08-04T03:40:54.122Z,11.00
2022-08-04T03:43:57.582Z,21.33
2022-08-04T03:46:25.975Z,16.23
2022-08-04T03:49:09.199Z,7.60
2022-08-04T03:52:25.476Z,16.90
2022-08-04T03:55:11.187Z,9.13
2022-08-04T03:57:57.196Z,15.03
2022-08-04T04:00:52.719Z,12.93
2022-08-04T04:03:47.860Z,17.70
2022-08-04T04:06:52.904Z,11.17
2022-08-04T04:09:54.817Z,13.30
2022-08-04T04:12:46.929Z,6.70
2022-08-04T04:15:50.056Z,9.23
2022-08-04T04:18:27.886Z,11.50
2022-08-04T04:21:26.480Z,13.67
2022-08-04T04:24:16.494Z,10.80
2022-08-04T04:26:54.907Z,14.53
2022-08-04T04:29:50.358Z,16.83
2022-08-04T04:32:37.252Z,11.13
2022-08-04T04:35:31.757Z,14.57
2022-08-04T04:38:25.951Z,16.63
2022-08-04T04:41:20.394Z,17.63
2022-08-04T04:44:14.603Z,16.90
2022-08-04T04:47:10.011Z,15.90
2022-08-04T04:49:51.306Z,12.73
2022-08-04T04:52:38.075Z,14.03
2022-08-04T04:55:16.055Z,14.13
2022-08-04T04:57:54.555Z,12.53
2022-08-04T05:00:26.194Z,12.30
2022-08-04T05:03:17.328Z,12.60
2022-08-04T05:06:16.439Z,14.17
2022-08-04T05:08:54.446Z,7.97
2022-08-04T05:11:57.978Z,12.90
2022-08-04T05:14:41.106Z,18.13
2022-08-04T05:17:27.598Z,14.67
2022-08-04T05:20:08.291Z,12.00
2022-08-04T05:22:47.773Z,11.27
2022-08-04T05:25:21.125Z,12.87
2022-08-04T05:27:58.961Z,7.07
2022-08-04T05:30:28.685Z,10.47
2022-08-04T05:33:18.939Z,10.83
2022-08-04T05:36:17.731Z,14.17
2022-08-04T05:38:42.395Z,7.07
2022-08-04T05:41:10.795Z,8.80
2022-08-04T05:43:40.456Z,13.07
2022-08-04T05:46:09.215Z,9.23
2022-08-04T05:48:37.305Z,12.10
2022-08-04T05:51:05.273Z,11.57
2022-08-04T05:53:33.033Z,11.43
2022-08-04T05:56:02.189Z,12.60
2022-08-04T05:58:30.820Z,10.90
2022-08-04T06:01:00.687Z,11.83
2022-08-04T06:03:30.777Z,8.33
2022-08-04T06:05:58.905Z,13.47
2022-08-04T06:08:25.703Z,18.33
2022-08-04T06:10:55.500Z,8.27
2022-08-04T06:13:47.463Z,5.70
2022-08-04T06:16:28.517Z,13.57
2022-08-04T06:20:00.270Z,12.90
2022-08-04T06:21:50.288Z,13.93
2022-08-04T06:24:23.564Z,6.23
2022-08-04T06:26:51.646Z,6.68
2022-08-04T06:29:33.702Z,7.03
2022-08-04T06:32:30.161Z,9.90
2022-08-04T06:34:55.572Z,8.48
2022-08-04T06:37:41.806Z,13.65
2022-08-04T06:40:30.847Z,11.50
2022-08-04T06:43:02.753Z,4.72
2022-08-04T06:45:30.017Z,9.00
2022-08-04T06:47:58.239Z,10.18
2022-08-04T06:51:32.266Z,7.70
2022-08-04T06:53:12.231Z,12.63
2022-08-04T06:55:40.466Z,10.10
2022-08-04T06:58:08.413Z,8.00
2022-08-04T07:00:38.681Z,11.25
2022-08-04T07:03:05.601Z,10.48
2022-08-04T07:05:32.312Z,7.38
2022-08-04T07:07:59.331Z,10.15
2022-08-04T07:10:30.528Z,3.17
2022-08-04T07:12:57.939Z,6.85
2022-08-04T07:15:25.695Z,5.30
2022-08-04T07:17:53.393Z,9.73
2022-08-04T07:20:33.977Z,6.35
2022-08-04T07:23:04.476Z,5.10
2022-08-04T07:26:00.614Z,3.00
2022-08-04T07:28:20.994Z,6.90
2022-08-04T07:30:49.555Z,3.50
2022-08-04T07:33:18.203Z,4.90
2022-08-04T07:36:09.390Z,6.10
2022-08-04T07:38:33.739Z,3.65
2022-08-04T07:41:35.267Z,3.65
2022-08-04T07:43:54.686Z,4.55
2022-08-04T07:46:21.640Z,6.43
2022-08-04T07:48:48.564Z,2.25
2022-08-04T07:51:16.843Z,3.00
2022-08-04T07:53:53.381Z,7.30
2022-08-04T07:56:22.969Z,8.40
2022-08-04T07:58:50.353Z,7.55
2022-08-04T08:01:18.962Z,6.28
2022-08-04T08:03:46.603Z,33.92
2022-08-04T08:06:31.156Z,6.18
2022-08-04T08:09:12.091Z,11.02
2022-08-04T08:12:36.284Z,7.72
2022-08-04T08:14:35.549Z,11.52
2022-08-04T08:17:03.240Z,7.38
2022-08-04T08:19:34.549Z,8.50
2022-08-04T08:22:02.340Z,6.18
2022-08-04T08:24:35.903Z,12.27
2022-08-04T08:27:06.769Z,4.32
2022-08-04T08:29:35.376Z,9.15
2022-08-04T08:32:08.142Z,6.22
2022-08-04T08:34:36.021Z,8.32
2022-08-04T08:37:05.378Z,2.95
2022-08-04T08:39:40.517Z,13.02
2022-08-04T08:42:16.799Z,5.05
2022-08-04T08:45:17.934Z,2.40
2022-08-04T08:48:06.093Z,4.22
2022-08-04T08:50:52.542Z,2.72
2022-08-04T08:53:51.098Z,4.70
2022-08-04T08:56:17.554Z,5.35
2022-08-04T08:59:03.198Z,6.13
2022-08-04T09:01:59.559Z,5.50
2022-08-04T09:04:53.952Z,5.07
2022-08-04T09:07:49.018Z,7.57
2022-08-04T09:10:48.874Z,4.13
2022-08-04T09:13:36.787Z,2.65
2022-08-04T09:16:16.265Z,3.88
2022-08-04T09:19:37.531Z,5.15
2022-08-04T09:22:10.705Z,9.00
2022-08-04T09:24:54.073Z,3.72
2022-08-04T09:27:28.845Z,4.20
2022-08-04T09:30:05.375Z,7.38
2022-08-04T09:32:38.004Z,3.55
2022-08-04T09:35:22.394Z,3.22
2022-08-04T09:38:02.131Z,4.85
2022-08-04T09:40:53.808Z,10.00
2022-08-04T09:44:42.100Z,11.32
2022-08-04T09:46:29.145Z,4.88
2022-08-04T09:49:04.996Z,5.70
2022-08-04T09:51:57.191Z,10.02
2022-08-04T09:54:52.786Z,4.93
2022-08-04T09:57:38.954Z,10.45
2022-08-04T10:00:09.182Z,2.17
2022-08-04T10:02:51.363Z,2.90
2022-08-04T10:05:27.616Z,6.40
2022-08-04T10:08:16.586Z,3.05
2022-08-04T10:11:12.386Z,5.60
2022-08-04T10:13:56.574Z,8.88
2022-08-04T10:16:58.530Z,1.88
2022-08-04T10:19:32.401Z,6.93
2022-08-04T10:22:28.715Z,8.02
2022-08-04T10:26:05.707Z,11.07
2022-08-04T10:28:24.405Z,1.38
2022-08-04T10:30:55.937Z,1.85
2022-08-04T10:33:30.550Z,3.28
2022-08-04T10:36:04.831Z,3.25
2022-08-04T10:38:37.513Z,3.42
2022-08-04T10:41:12.301Z,2.03
2022-08-04T10:43:58.917Z,4.78
2022-08-04T10:46:37.446Z,11.13
2022-08-04T10:49:09.716Z,2.25
2022-08-04T10:51:58.466Z,1.98
2022-08-04T10:54:48.001Z,7.22
2022-08-04T10:57:21.130Z,1.30
2022-08-04T11:00:05.182Z,3.47
2022-08-04T11:02:39.989Z,1.90
2022-08-04T11:05:25.792Z,6.40
2022-08-04T11:07:59.597Z,1.45
2022-08-04T11:10:32.284Z,4.68
2022-08-04T11:13:04.833Z,2.92
2022-08-04T11:15:40.198Z,4.18
2022-08-04T11:18:16.178Z,3.10
2022-08-04T11:20:52.970Z,3.10
2022-08-04T11:23:26.524Z,3.33
2022-08-04T11:26:00.739Z,1.67
2022-08-04T11:29:03.270Z,1.83
2022-08-04T11:31:39.835Z,17.48
2022-08-04T11:34:20.717Z,3.00
2022-08-04T11:37:00.359Z,5.35
2022-08-04T11:39:36.287Z,2.88
2022-08-04T11:42:27.100Z,5.25
2022-08-04T11:45:06.302Z,1.88
2022-08-04T11:47:41.593Z,2.65
2022-08-04T11:50:21.043Z,11.57
2022-08-04T11:52:48.907Z,11.13
2022-08-04T11:55:17.901Z,7.95
2022-08-04T11:57:44.978Z,4.22
2022-08-04T12:00:14.823Z,23.05
2022-08-04T12:02:59.083Z,3.90
2022-08-04T12:05:41.522Z,6.82
2022-08-04T12:08:36.367Z,11.57
2022-08-04T12:11:21.412Z,5.70
2022-08-04T12:14:17.223Z,2.72
2022-08-04T12:17:04.446Z,4.80
2022-08-04T12:20:04.658Z,5.00
2022-08-04T12:22:40.802Z,2.25
2022-08-04T12:25:11.854Z,3.45
2022-08-04T12:27:43.831Z,1.27
2022-08-04T12:30:58.211Z,1.63
2022-08-04T12:33:10.671Z,4.10
2022-08-04T12:36:10.317Z,6.50
2022-08-04T12:38:33.429Z,3.63
2022-08-04T12:41:04.986Z,1.20
2022-08-04T12:43:47.149Z,1.52
2022-08-04T12:46:23.561Z,1.50
2022-08-04T12:48:51.238Z,1.55
2022-08-04T12:51:30.933Z,4.32
2022-08-04T12:54:07.234Z,7.20
2022-08-04T12:56:34.685Z,3.95
2022-08-04T12:59:13.014Z,7.93
2022-08-04T13:02:07.883Z,2.55
2022-08-04T13:04:34.748Z,7.03
2022-08-04T13:07:12.798Z,4.53
2022-08-04T13:09:41.155Z,3.38
2022-08-04T13:12:32.417Z,14.52
2022-08-04T13:15:18.506Z,1.38
2022-08-04T13:18:03.938Z,11.63
2022-08-04T13:20:39.164Z,4.03
2022-08-04T13:23:11.715Z,4.43
2022-08-04T13:26:43.390Z,4.03
2022-08-04T13:28:34.362Z,2.15
2022-08-04T13:31:05.464Z,5.03
2022-08-04T13:33:35.355Z,4.55
2022-08-04T13:36:02.747Z,2.67
2022-08-04T13:38:31.249Z,6.60
2022-08-04T13:41:02.871Z,1.23
2022-08-04T13:44:15.495Z,2.30
2022-08-04T13:46:28.028Z,4.22
2022-08-04T13:49:31.247Z,3.83
2022-08-04T13:51:58.013Z,1.60
2022-08-04T13:54:46.876Z,5.00
2022-08-04T13:57:27.759Z,6.55
2022-08-04T13:59:59.976Z,5.22
2022-08-04T14:02:41.528Z,3.63
2022-08-04T14:05:27.011Z,1.63
2022-08-04T14:08:06.583Z,4.55
2022-08-04T14:10:34.717Z,1.77
2022-08-04T14:13:04.243Z,4.47
2022-08-04T14:16:01.206Z,20.48
2022-08-04T14:18:32.228Z,4.55
2022-08-04T14:21:11.285Z,2.15
2022-08-04T14:23:54.008Z,5.10
2022-08-04T14:26:31.579Z,2.08
2022-08-04T14:29:28.313Z,2.67
2022-08-04T14:32:05.529Z,9.07
2022-08-04T14:34:39.314Z,3.53
2022-08-04T14:37:16.267Z,3.03
2022-08-04T14:40:08.964Z,7.28
2022-08-04T14:42:55.401Z,9.65
2022-08-04T14:45:37.011Z,3.60
2022-08-04T14:48:11.653Z,2.22
2022-08-04T14:50:43.861Z,7.32
2022-08-04T14:53:30.778Z,17.95
2022-08-04T14:56:01.066Z,5.45
2022-08-04T14:58:38.839Z,6.60
2022-08-04T15:01:12.360Z,10.70
2022-08-04T15:03:52.081Z,24.08
2022-08-04T15:06:23.222Z,26.00
2022-08-04T15:08:51.718Z,38.95
2022-08-04T15:11:23.660Z,60.90
2022-08-04T15:13:55.652Z,17.27
2022-08-04T15:16:24.346Z,27.13
2022-08-04T15:18:54.878Z,18.08
2022-08-04T15:21:28.098Z,8.85
2022-08-04T15:23:59.017Z,19.38
2022-08-04T15:26:33.611Z,10.13
2022-08-04T15:29:10.989Z,10.83
2022-08-04T15:32:05.339Z,9.93
2022-08-04T15:34:43.113Z,2.30
2022-08-04T15:37:10.823Z,11.17
2022-08-04T15:40:09.476Z,9.30
2022-08-04T15:42:43.877Z,6.50
2022-08-04T15:46:02.048Z,5.33
2022-08-04T15:48:12.027Z,5.40
2022-08-04T15:51:02.868Z,3.10
2022-08-04T15:54:01.361Z,2.90
2022-08-04T15:56:26.395Z,8.73
2022-08-04T15:58:57.575Z,4.80
2022-08-04T16:01:24.814Z,2.87
2022-08-04T16:03:58.247Z,3.97
2022-08-04T16:06:29.583Z,1.60
2022-08-04T16:09:03.852Z,2.20
2022-08-04T16:11:32.541Z,5.50
2022-08-04T16:13:59.751Z,5.97
2022-08-04T16:16:27.818Z,1.67
2022-08-04T16:18:54.927Z,2.73
2022-08-04T16:21:24.243Z,11.97
2022-08-04T16:24:05.812Z,4.40
2022-08-04T16:26:45.440Z,2.43
2022-08-04T16:29:38.223Z,1.50
2022-08-04T16:32:04.766Z,1.80
2022-08-04T16:34:47.898Z,5.13
2022-08-04T16:37:19.087Z,21.57
2022-08-04T16:39:51.304Z,1.63
2022-08-04T16:42:27.487Z,4.10
2022-08-04T16:45:09.127Z,5.37
2022-08-04T16:47:47.519Z,2.30
2022-08-04T16:50:19.630Z,1.77
2022-08-04T16:52:51.595Z,3.47
2022-08-04T16:55:19.959Z,4.87
2022-08-04T16:57:47.301Z,1.90
2022-08-04T17:00:14.595Z,5.80
2022-08-04T17:02:41.567Z,4.00
2022-08-04T17:05:39.058Z,4.87
2022-08-04T17:10:55.805Z,5.90
2022-08-04T17:14:02.531Z,16.03
2022-08-04T17:16:18.252Z,7.53
2022-08-04T17:18:48.168Z,13.67
2022-08-04T17:21:22.631Z,4.57
2022-08-04T17:24:16.545Z,13.53
2022-08-04T17:26:45.261Z,9.93
2022-08-04T17:29:20.051Z,6.10
2022-08-04T17:31:47.011Z,5.53
2022-08-04T17:34:19.502Z,5.03
2022-08-04T17:36:48.073Z,8.13
2022-08-04T17:39:23.242Z,7.63
2022-08-04T17:41:56.075Z,4.43
2022-08-04T17:44:38.431Z,4.77
2022-08-04T17:47:16.761Z,6.53
2022-08-04T17:49:52.533Z,8.30
2022-08-04T17:52:41.432Z,5.77
2022-08-04T17:55:16.416Z,10.70
2022-08-04T17:57:52.628Z,3.60
2022-08-04T18:00:20.050Z,5.43
2022-08-04T18:02:54.463Z,7.30
2022-08-04T18:05:50.278Z,6.00
2022-08-04T18:08:39.659Z,5.07
2022-08-04T18:11:03.566Z,5.77
2022-08-04T18:13:31.257Z,5.77
2022-08-04T18:16:21.745Z,9.40
2022-08-04T18:19:10.244Z,4.17
2022-08-04T18:21:46.730Z,6.07
2022-08-04T18:24:34.773Z,5.40
2022-08-04T18:27:10.110Z,2.30
2022-08-04T18:29:41.222Z,7.00
2022-08-04T18:32:33.003Z,3.10
2022-08-04T18:35:05.713Z,8.50
2022-08-04T18:38:05.801Z,11.63
2022-08-04T18:40:34.311Z,12.20
2022-08-04T18:43:08.611Z,9.70
2022-08-04T18:45:41.142Z,13.23
2022-08-04T18:48:17.912Z,6.50
2022-08-04T18:51:09.693Z,4.67
2022-08-04T18:53:35.797Z,6.57
2022-08-04T18:56:06.098Z,2.20
2022-08-04T18:58:32.971Z,5.17
2022-08-04T19:01:01.113Z,10.67
2022-08-04T19:03:30.786Z,6.53
2022-08-04T19:06:02.312Z,8.90
2022-08-04T19:11:53.372Z,9.53
2022-08-04T19:14:05.095Z,7.03
2022-08-04T19:16:33.991Z,15.07
2022-08-04T19:19:05.618Z,6.90
2022-08-04T19:21:59.958Z,6.13
2022-08-04T19:27:08.682Z,5.70
2022-08-04T19:29:41.035Z,8.73
2022-08-04T19:32:13.875Z,6.13
2022-08-04T19:34:42.493Z,3.70
2022-08-04T19:37:20.369Z,6.00
2022-08-04T19:40:00.672Z,7.83
2022-08-04T19:42:27.291Z,4.93
2022-08-04T19:44:53.812Z,5.40
2022-08-04T19:48:21.732Z,5.10
2022-08-04T19:52:54.398Z,3.50
2022-08-04T19:55:37.393Z,4.50
2022-08-04T19:58:08.511Z,6.73
2022-08-04T20:00:37.415Z,4.60
2022-08-04T20:03:11.581Z,5.67
2022-08-04T20:05:53.127Z,4.67
2022-08-04T20:08:21.410Z,12.47
2022-08-04T20:10:51.459Z,12.70
2022-08-04T20:13:19.814Z,4.90
2022-08-04T20:18:36.505Z,3.13
2022-08-04T20:21:36.589Z,2.70
2022-08-04T20:24:38.909Z,3.80
2022-08-04T20:26:54.061Z,8.23
2022-08-04T20:29:40.300Z,7.70
2022-08-04T20:32:08.778Z,7.70
2022-08-04T20:34:37.131Z,3.37
2022-08-04T20:37:03.910Z,5.07
2022-08-04T20:39:30.770Z,4.57
2022-08-04T20:41:57.928Z,6.13
2022-08-04T20:44:24.549Z,7.93
2022-08-04T20:46:51.114Z,5.83
2022-08-04T20:49:17.797Z,4.67
2022-08-04T20:51:44.375Z,6.83
2022-08-04T20:54:16.885Z,8.87
2022-08-04T20:56:51.118Z,9.20
2022-08-04T20:59:18.923Z,5.40
2022-08-04T21:01:49.024Z,4.57
2022-08-04T21:04:32.244Z,7.90
2022-08-04T21:07:07.603Z,4.67
2022-08-04T21:09:38.337Z,9.13
2022-08-04T21:12:11.008Z,5.93
2022-08-04T21:15:01.147Z,5.23
2022-08-04T21:17:59.523Z,11.40
2022-08-04T21:20:27.654Z,13.17
2022-08-04T21:22:54.989Z,10.17
2022-08-04T21:25:22.195Z,7.27
2022-08-04T21:27:48.785Z,9.50
2022-08-04T21:30:23.915Z,7.43
2022-08-04T21:32:52.071Z,8.97
2022-08-04T21:35:19.015Z,4.90
2022-08-04T21:37:58.225Z,4.20
2022-08-04T21:40:36.763Z,22.03
2022-08-04T21:43:05.782Z,15.37
2022-08-04T21:45:36.251Z,15.50
2022-08-04T21:48:04.748Z,12.00
2022-08-04T21:50:31.376Z,7.93
2022-08-04T21:52:58.962Z,9.30
2022-08-04T21:56:04.366Z,7.17
2022-08-04T21:58:13.353Z,10.47
2022-08-04T22:00:40.717Z,14.97
2022-08-04T22:03:11.335Z,7.90
2022-08-04T22:05:55.322Z,11.53
2022-08-04T22:08:23.434Z,12.27
2022-08-04T22:10:50.286Z,10.03
2022-08-04T22:13:22.660Z,18.80
2022-08-04T22:16:03.701Z,13.60
2022-08-04T22:18:32.382Z,5.93
2022-08-04T22:21:04.457Z,9.43
2022-08-04T22:23:44.904Z,12.30
2022-08-04T22:26:26.897Z,12.43
2022-08-04T22:28:56.193Z,11.67
2022-08-04T22:31:24.902Z,13.40
2022-08-04T22:33:55.298Z,12.27
2022-08-04T22:36:22.713Z,13.17
2022-08-04T22:39:00.276Z,16.33
2022-08-04T22:41:34.220Z,13.00
2022-08-04T22:44:15.938Z,17.60
2022-08-04T22:46:43.068Z,13.70
2022-08-04T22:49:09.624Z,15.67
2022-08-04T22:51:36.188Z,18.77
2022-08-04T22:54:02.754Z,25.87
2022-08-04T22:56:39.282Z,25.83
2022-08-04T22:59:10.841Z,31.47
2022-08-04T23:02:00.121Z,24.93
2022-08-04T23:04:25.633Z,19.73
2022-08-04T23:06:54.715Z,29.40
2022-08-04T23:09:26.973Z,27.07
2022-08-04T23:12:24.387Z,28.63
2022-08-04T23:14:54.985Z,24.37
2022-08-04T23:17:22.308Z,27.80
2022-08-04T23:19:58.072Z,31.30
2022-08-04T23:22:36.929Z,24.30
2022-08-04T23:25:04.628Z,37.63
2022-08-04T23:27:40.246Z,36.57
2022-08-04T23:30:11.247Z,31.10
2022-08-04T23:32:38.119Z,30.37
2022-08-04T23:35:05.108Z,36.17
2022-08-04T23:37:36.688Z,27.80
2022-08-04T23:40:32.763Z,26.50
2022-08-04T23:43:00.824Z,29.93
2022-08-04T23:46:04.229Z,38.67
2022-08-04T23:48:19.405Z,43.63
2022-08-04T23:50:47.798Z,33.50
2022-08-04T23:53:18.461Z,33.27
2022-08-04T23:55:49.176Z,34.77
2022-08-04T23:58:18.778Z,33.83
